Time;durP1;ratioP1;P1;durP2;ratioP2;P2;SDS_P1;SDS_P2;PMS_P1;PMS_P2;Temp;Humidity;BMP_temperature;BMP_pressure;BME280_temperature;BME280_humidity;BME280_pressure;Samples;Min_cycle;Max_cycle;Signal;HPM_P1;HPM_P2
2021/12/28 00:03:58;;;;;;;31.95;14.45;;;;;;;1.77;87.70;97200.44;10409188;28;20052;-57
2021/12/28 00:08:57;;;;;;;33.58;14.55;;;;;;;1.90;87.84;97202.47;10413417;28;20075;-57
2021/12/28 00:14:01;;;;;;;34.58;15.80;;;;;;;1.98;87.71;97200.06;10406149;28;20040;-57
2021/12/28 00:19:02;;;;;;;47.55;21.50;;;;;;;2.04;87.31;97218.13;10416189;28;20060;-57
2021/12/28 00:24:02;;;;;;;45.63;21.05;;;;;;;2.02;87.13;97216.34;10397870;28;20056;-57
2021/12/28 00:29:01;;;;;;;42.58;18.50;;;;;;;1.93;87.82;97212.75;10397509;28;20083;-57
2021/12/28 00:33:59;;;;;;;40.30;16.05;;;;;;;2.01;87.89;97205.25;10416112;28;20042;-57
2021/12/28 00:39:00;;;;;;;45.15;18.17;;;;;;;2.09;87.23;97205.44;10402325;28;20040;-57
2021/12/28 00:43:59;;;;;;;42.78;19.42;;;;;;;2.05;87.12;97212.19;10409556;28;20455;-57
2021/12/28 00:48:58;;;;;;;47.88;18.45;;;;;;;2.10;87.25;97190.13;10385796;28;20478;-57
2021/12/28 00:53:57;;;;;;;41.20;18.85;;;;;;;1.99;87.56;97193.25;10378132;28;20072;-57
2021/12/28 00:58:56;;;;;;;40.38;17.17;;;;;;;2.04;87.33;97184.00;10401018;28;20040;-57
2021/12/28 01:03:55;;;;;;;39.67;16.58;;;;;;;2.08;87.60;97186.66;10398501;28;20105;-57
2021/12/28 01:08:54;;;;;;;39.85;16.65;;;;;;;2.24;86.98;97181.91;10407982;28;20507;-57
2021/12/28 01:13:53;;;;;;;49.55;18.75;;;;;;;2.28;86.87;97183.69;10411312;28;20032;-57
2021/12/28 01:18:52;;;;;;;40.85;17.30;;;;;;;2.38;86.65;97181.34;10409823;28;20021;-57
2021/12/28 01:23:51;;;;;;;51.13;24.25;;;;;;;2.24;86.77;97185.31;10407480;28;20478;-57
2021/12/28 01:28:50;;;;;;;48.97;20.75;;;;;;;2.08;87.02;97165.31;10410919;28;20851;-57
2021/12/28 01:33:49;;;;;;;38.28;17.90;;;;;;;1.95;87.41;97166.75;10399479;28;20043;-57
2021/12/28 01:38:49;;;;;;;;;;;;;;;1.97;87.08;97177.84;10414431;28;20064;-57
2021/12/28 01:43:55;;;;;;;42.67;17.50;;;;;;;1.95;87.15;97180.41;10422350;28;19962;-57
2021/12/28 01:48:54;;;;;;;42.42;19.40;;;;;;;1.99;87.13;97178.75;10422330;28;20565;-57
2021/12/28 01:53:57;;;;;;;35.83;16.48;;;;;;;2.03;86.95;97182.28;10416968;28;20486;-57
2021/12/28 01:58:56;;;;;;;34.17;14.00;;;;;;;1.97;86.91;97180.41;10409332;28;20078;-57
2021/12/28 02:03:56;;;;;;;32.97;15.10;;;;;;;1.95;86.65;97179.53;10419148;28;20049;-57
2021/12/28 02:08:55;;;;;;;27.52;13.82;;;;;;;1.96;86.83;97179.56;10419908;28;20056;-57
2021/12/28 02:13:54;;;;;;;38.35;16.30;;;;;;;1.95;86.60;97182.09;10413121;28;20128;-57
2021/12/28 02:18:53;;;;;;;36.92;14.82;;;;;;;1.88;86.88;97146.94;10418727;28;20056;-57
2021/12/28 02:23:52;;;;;;;37.95;18.33;;;;;;;2.09;86.77;97167.94;10418269;28;20044;-57
2021/12/28 02:28:51;;;;;;;39.08;15.73;;;;;;;1.96;86.57;97153.13;10412412;28;20051;-57
2021/12/28 02:33:51;;;;;;;37.60;14.48;;;;;;;2.06;86.88;97157.59;10418571;28;20083;-57
2021/12/28 02:38:50;;;;;;;35.47;15.00;;;;;;;2.14;86.48;97150.97;10414196;28;20151;-57
2021/12/28 02:43:49;;;;;;;34.20;15.30;;;;;;;2.13;86.97;97150.94;10417687;28;20487;-57
2021/12/28 02:48:48;;;;;;;35.72;16.35;;;;;;;2.17;86.96;97158.72;10414505;28;20094;-57
2021/12/28 02:53:48;;;;;;;35.30;14.68;;;;;;;2.17;86.89;97171.50;10418120;28;20034;-58
2021/12/28 02:58:50;;;;;;;45.05;17.98;;;;;;;1.94;86.91;97150.50;10410895;28;20060;-57
2021/12/28 03:03:53;;;;;;;36.67;15.43;;;;;;;1.87;86.63;97164.00;10414504;28;20052;-58
2021/12/28 03:08:55;;;;;;;44.25;15.60;;;;;;;1.82;86.91;97172.41;10417552;28;20052;-57
2021/12/28 03:13:57;;;;;;;35.33;14.88;;;;;;;1.73;86.98;97161.09;10417192;28;20063;-57
2021/12/28 03:18:57;;;;;;;35.53;14.88;;;;;;;1.68;87.19;97164.38;10414092;28;20549;-57
2021/12/28 03:23:57;;;;;;;38.58;15.27;;;;;;;1.74;87.03;97159.44;10385354;28;20063;-57
2021/12/28 03:28:56;;;;;;;43.95;15.57;;;;;;;1.68;87.20;97164.38;10391311;28;20076;-57
2021/12/28 03:33:55;;;;;;;39.88;17.90;;;;;;;1.63;86.71;97151.50;10417827;28;20496;-57
2021/12/28 03:38:57;;;;;;;53.20;16.88;;;;;;;1.64;87.42;97158.31;10417180;28;20084;-57
2021/12/28 03:43:56;;;;;;;41.17;16.10;;;;;;;1.68;87.36;97154.16;10410305;28;20800;-57
2021/12/28 03:48:56;;;;;;;;;;;;;;;1.70;87.63;97158.47;10417597;28;20063;-57
2021/12/28 03:53:55;;;;;;;49.27;15.30;;;;;;;1.73;87.34;97170.47;10417451;28;19951;-57
2021/12/28 03:58:54;;;;;;;50.92;17.75;;;;;;;1.69;87.39;97166.09;10412768;28;20071;-57
2021/12/28 04:03:54;;;;;;;55.22;17.33;;;;;;;1.71;87.42;97173.00;10415046;28;20091;-57
2021/12/28 04:08:56;;;;;;;48.75;17.30;;;;;;;1.78;88.06;97183.38;10417437;28;20514;-57
2021/12/28 04:14:05;;;;;;;49.38;16.50;;;;;;;1.90;87.75;97175.97;10415886;28;20076;-57
2021/12/28 04:19:05;;;;;;;46.63;16.38;;;;;;;1.84;87.80;97186.94;10417103;28;20072;-57
2021/12/28 04:24:04;;;;;;;48.80;16.30;;;;;;;1.85;87.79;97164.78;10401886;28;20071;-57
2021/12/28 04:29:03;;;;;;;;;;;;;;;1.87;87.68;97178.47;10375345;28;20103;-57
2021/12/28 04:34:03;;;;;;;45.55;16.83;;;;;;;1.91;87.72;97163.25;10411724;28;19919;-57
2021/12/28 04:39:04;;;;;;;44.22;15.43;;;;;;;1.93;87.99;97170.97;10413204;28;20762;-57
2021/12/28 04:44:04;;;;;;;48.30;19.48;;;;;;;2.02;87.69;97163.50;10414912;28;20064;-57
2021/12/28 04:49:03;;;;;;;55.10;20.92;;;;;;;1.90;88.04;97152.97;10374543;28;20072;-57
2021/12/28 04:54:06;;;;;;;77.45;24.92;;;;;;;1.93;87.57;97155.63;10374003;28;20064;-57
2021/12/28 04:59:06;;;;;;;92.38;32.55;;;;;;;1.79;87.71;97136.53;10373142;28;20555;-57
2021/12/28 05:04:05;;;;;;;77.20;28.55;;;;;;;1.90;88.15;97170.88;10418098;28;20103;-57
2021/12/28 05:09:07;;;;;;;90.22;31.73;;;;;;;1.89;88.16;97151.25;10395079;28;20063;-57
2021/12/28 05:14:08;;;;;;;77.60;28.75;;;;;;;1.96;88.03;97168.47;10416800;28;20060;-57
2021/12/28 05:19:08;;;;;;;68.53;25.58;;;;;;;1.82;88.03;97163.03;10423180;28;20071;-57
2021/12/28 05:24:07;;;;;;;69.65;24.35;;;;;;;1.85;88.39;97159.66;10422557;28;20060;-57
2021/12/28 05:29:06;;;;;;;65.50;24.70;;;;;;;1.84;88.38;97161.38;10415489;28;20075;-57
2021/12/28 05:34:07;;;;;;;65.80;26.17;;;;;;;1.84;88.49;97166.50;10417401;28;20060;-57
2021/12/28 05:39:06;;;;;;;87.55;33.33;;;;;;;1.85;88.35;97168.19;10419207;28;20064;-57
2021/12/28 05:44:06;;;;;;;82.43;30.00;;;;;;;1.90;88.48;97165.75;10422325;28;20043;-57
2021/12/28 05:49:05;;;;;;;83.47;31.05;;;;;;;1.92;88.42;97164.97;10419006;28;20060;-57
2021/12/28 05:54:04;;;;;;;79.20;30.25;;;;;;;1.96;88.22;97160.78;10421557;28;20063;-57
2021/12/28 05:59:03;;;;;;;87.03;34.00;;;;;;;1.99;88.03;97163.41;10421467;28;20526;-57
2021/12/28 06:04:02;;;;;;;101.25;32.53;;;;;;;1.96;88.10;97164.22;10417024;28;20052;-57
2021/12/28 06:09:02;;;;;;;89.90;32.50;;;;;;;1.95;88.27;97174.44;10421409;28;20063;-57
2021/12/28 06:14:03;;;;;;;105.05;33.92;;;;;;;1.89;88.20;97156.38;10418015;28;20475;-57
2021/12/28 06:19:06;;;;;;;87.20;30.77;;;;;;;1.85;88.18;97177.56;10419876;28;20063;-57
2021/12/28 06:24:06;;;;;;;113.35;36.08;;;;;;;1.77;88.69;97181.66;10420001;28;20476;-57
2021/12/28 06:29:07;;;;;;;93.25;30.67;;;;;;;1.80;88.69;97182.59;10419143;28;20079;-57
2021/12/28 06:34:07;;;;;;;230.77;89.40;;;;;;;1.97;88.28;97167.63;10411189;28;20461;-57
2021/12/28 06:39:06;;;;;;;105.07;38.83;;;;;;;1.88;88.52;97173.41;10416950;28;20072;-57
2021/12/28 06:44:09;;;;;;;;;;;;;;;2.02;88.60;97175.41;10419763;28;20060;-58
2021/12/28 06:49:08;;;;;;;121.47;45.67;;;;;;;2.10;88.86;97174.75;10415244;28;19967;-58
2021/12/28 06:54:07;;;;;;;140.40;54.55;;;;;;;2.19;88.33;97168.13;10418254;28;20071;-58
2021/12/28 06:59:06;;;;;;;121.82;50.78;;;;;;;2.15;88.44;97177.44;10418965;28;20068;-58
2021/12/28 07:04:05;;;;;;;125.55;50.28;;;;;;;2.19;88.44;97174.13;10415113;28;20067;-58
2021/12/28 07:09:04;;;;;;;164.77;70.53;;;;;;;2.05;88.50;97165.25;10410953;28;20035;-58
2021/12/28 07:14:03;;;;;;;136.82;47.55;;;;;;;2.03;88.89;97175.44;10411944;28;20120;-58
2021/12/28 07:19:02;;;;;;;141.77;45.00;;;;;;;2.02;88.98;97176.28;10415268;28;20040;-58
2021/12/28 07:24:02;;;;;;;189.90;39.00;;;;;;;1.87;89.27;97175.94;10414718;28;20070;-58
2021/12/28 07:29:01;;;;;;;;;;;;;;;2.00;89.33;97172.84;10406774;28;20139;-58
2021/12/28 07:34:00;;;;;;;86.70;34.55;;;;;;;2.07;88.98;97169.59;10409826;28;19959;-58
2021/12/28 07:39:00;;;;;;;114.53;33.15;;;;;;;2.21;88.64;97186.94;10406434;28;20068;-58
2021/12/28 07:43:59;;;;;;;;;;;;;;;2.26;88.67;97170.84;10409692;28;20064;-58
2021/12/28 07:48:58;;;;;;;136.85;34.33;;;;;;;2.35;88.77;97177.88;9895659;28;21623;-58
2021/12/28 07:53:57;;;;;;;100.75;37.72;;;;;;;2.34;88.87;97174.44;10358258;28;20481;-58
2021/12/28 07:58:56;;;;;;;190.85;43.97;;;;;;;2.35;88.97;97172.75;10411450;28;20809;-58
2021/12/28 08:03:55;;;;;;;215.90;52.03;;;;;;;2.51;88.56;97174.81;10413138;28;20064;-58
2021/12/28 08:08:54;;;;;;;150.65;52.05;;;;;;;2.58;88.79;97188.59;10414878;28;20028;-58
2021/12/28 08:13:53;;;;;;;155.48;53.30;;;;;;;2.43;88.67;97167.81;10410759;28;20475;-58
2021/12/28 08:18:52;;;;;;;152.68;58.38;;;;;;;2.47;88.56;97184.97;10412601;28;20056;-58
2021/12/28 08:23:51;;;;;;;;;;;;;;;2.47;87.87;97185.81;10412776;28;20064;-58
2021/12/28 08:28:50;;;;;;;245.30;61.45;;;;;;;2.52;88.13;97175.69;10413241;28;19924;-58
2021/12/28 08:33:49;;;;;;;183.68;58.05;;;;;;;2.58;88.13;97175.78;10413770;28;20068;-58
2021/12/28 08:38:48;;;;;;;170.25;56.63;;;;;;;2.56;88.08;97151.88;10416756;28;20036;-58
2021/12/28 08:43:50;;;;;;;194.35;67.55;;;;;;;2.76;88.16;97160.78;10413111;28;20129;-58
2021/12/28 08:48:51;;;;;;;178.57;64.10;;;;;;;2.90;88.08;97166.19;10413667;28;20048;-58
2021/12/28 08:53:51;;;;;;;195.63;58.88;;;;;;;2.93;87.69;97166.28;10414754;28;20071;-58
2021/12/28 08:58:51;;;;;;;173.38;68.22;;;;;;;2.86;87.38;97154.16;10414726;28;20083;-59
2021/12/28 09:03:52;;;;;;;163.02;51.95;;;;;;;2.98;87.62;97166.34;10413965;28;20824;-58
2021/12/28 09:08:51;;;;;;;139.77;52.72;;;;;;;2.99;87.20;97140.75;10413795;28;20068;-58
2021/12/28 09:13:51;;;;;;;172.05;43.92;;;;;;;3.06;87.14;97151.13;10411828;28;20138;-58
2021/12/28 09:18:50;;;;;;;148.18;40.88;;;;;;;3.05;87.46;97150.28;10412575;28;20574;-58
2021/12/28 09:23:49;;;;;;;132.60;37.63;;;;;;;3.06;87.05;97146.84;10411787;28;20494;-58
2021/12/28 09:28:48;;;;;;;135.07;36.05;;;;;;;2.92;87.34;97153.44;10412776;28;20087;-58
2021/12/28 09:33:47;;;;;;;103.95;34.83;;;;;;;3.05;87.51;97149.38;10414106;28;20103;-58
2021/12/28 09:38:46;;;;;;;74.65;33.63;;;;;;;3.14;87.58;97129.03;10415005;28;20036;-58
2021/12/28 09:43:45;;;;;;;;;;;;;;;3.61;87.64;97134.13;10415963;28;20535;-58
2021/12/28 09:48:44;;;;;;;56.85;22.23;;;;;;;3.77;86.95;97138.66;10411740;28;20014;-58
2021/12/28 09:53:43;;;;;;;71.45;28.55;;;;;;;3.91;85.95;97138.03;10407900;28;20479;-59
2021/12/28 09:58:42;;;;;;;;;;;;;;;4.11;86.60;97125.50;10413143;28;20063;-58
2021/12/28 10:03:41;;;;;;;72.50;26.10;;;;;;;4.29;85.63;97131.75;10420179;28;19909;-58
2021/12/28 10:08:42;;;;;;;69.50;30.38;;;;;;;4.28;84.89;97135.13;10421300;28;20122;-58
2021/12/28 10:13:41;;;;;;;66.22;26.23;;;;;;;4.15;84.15;97124.66;10420138;28;20067;-58
2021/12/28 10:18:40;;;;;;;87.40;28.67;;;;;;;3.71;84.05;97127.47;10419886;28;20098;-58
2021/12/28 10:23:42;;;;;;;77.45;38.08;;;;;;;3.68;84.62;97125.69;10421250;28;20689;-58
2021/12/28 10:28:41;;;;;;;63.97;30.95;;;;;;;3.94;85.05;97122.66;10421482;28;20499;-58
2021/12/28 10:33:40;;;;;;;46.60;22.75;;;;;;;4.17;85.21;97121.28;10421109;28;20522;-58
2021/12/28 10:38:45;;;;;;;71.90;31.85;;;;;;;4.33;84.32;97114.66;10420937;28;20072;-59
2021/12/28 10:43:47;;;;;;;38.05;20.88;;;;;;;4.37;83.86;97118.13;10421166;28;20070;-59
2021/12/28 10:48:51;;;;;;;56.50;25.95;;;;;;;4.34;83.81;97112.94;10420709;28;20052;-58
2021/12/28 10:59:06;;;;;;;43.50;22.52;;;;;;;4.38;83.86;97122.41;10420281;28;20071;-58
2021/12/28 11:04:09;;;;;;;44.97;23.95;;;;;;;4.61;83.54;97115.00;10419395;28;20056;-59
2021/12/28 11:09:15;;;;;;;51.10;27.05;;;;;;;4.90;83.35;97115.34;10416489;28;20060;-58
2021/12/28 11:14:18;;;;;;;67.20;30.38;;;;;;;5.01;82.57;97118.91;10414893;28;20063;-58
2021/12/28 11:19:24;;;;;;;74.80;17.85;;;;;;;5.06;81.90;97109.56;10410278;28;20072;-58
2021/12/28 11:24:29;;;;;;;62.22;34.65;;;;;;;5.00;81.48;97118.91;10411677;28;20571;-59
2021/12/28 11:29:32;;;;;;;64.22;32.45;;;;;;;5.08;81.86;97101.84;10414819;28;20506;-58
2021/12/28 11:34:36;;;;;;;54.30;27.17;;;;;;;5.32;81.64;97096.06;10414188;28;20056;-58
2021/12/28 11:39:41;;;;;;;61.63;31.92;;;;;;;5.52;81.48;97094.53;10413941;28;20059;-58
2021/12/28 11:44:41;;;;;;;80.38;43.50;;;;;;;5.80;80.34;97102.47;10416061;28;20071;-58
2021/12/28 11:49:41;;;;;;;70.63;38.95;;;;;;;5.67;80.24;97088.66;10415574;28;20063;-58
2021/12/28 11:54:46;;;;;;;76.60;38.70;;;;;;;5.59;80.04;97090.31;10393608;28;20128;-58
2021/12/28 11:59:58;;;;;;;73.80;41.00;;;;;;;5.48;80.07;97092.78;10375023;28;20079;-58
2021/12/28 12:04:57;;;;;;;91.53;45.42;;;;;;;5.51;80.44;97084.25;10373444;28;20508;-58
2021/12/28 12:09:59;;;;;;;80.68;43.25;;;;;;;5.31;80.57;97084.91;10374106;28;20060;-58
2021/12/28 12:14:58;;;;;;;52.13;28.45;;;;;;;5.32;80.72;97084.09;10372960;28;20116;-58
2021/12/28 12:20:05;;;;;;;49.75;27.42;;;;;;;5.42;80.68;97074.72;10373430;28;20037;-58
2021/12/28 12:25:09;;;;;;;44.10;23.90;;;;;;;5.34;81.04;97074.69;10369485;28;20072;-58
2021/12/28 12:30:17;;;;;;;60.78;35.90;;;;;;;5.28;80.92;97084.91;10372150;28;20080;-58
2021/12/28 12:35:39;;;;;;;43.58;23.23;;;;;;;5.29;81.26;97088.31;10369743;28;20124;-58
2021/12/28 12:41:01;;;;;;;44.00;24.10;;;;;;;5.18;81.27;97087.38;10369193;28;20124;-58
2021/12/28 12:46:10;;;;;;;44.85;23.95;;;;;;;5.18;81.08;97089.94;10368055;28;20507;-58
2021/12/28 12:51:21;;;;;;;45.87;24.23;;;;;;;5.20;81.58;97096.81;10371715;28;20059;-58
2021/12/28 12:56:33;;;;;;;42.60;24.00;;;;;;;5.21;81.97;97108.00;10369711;28;20175;-58
2021/12/28 13:01:55;;;;;;;46.95;26.33;;;;;;;5.23;81.63;97114.00;10369364;28;20086;-58
2021/12/28 13:07:15;;;;;;;49.88;26.10;;;;;;;5.25;81.88;97112.28;10374627;28;20067;-58
2021/12/28 13:12:17;;;;;;;60.47;33.50;;;;;;;5.18;81.93;97098.53;10374135;28;20448;-58
2021/12/28 13:17:20;;;;;;;52.97;28.63;;;;;;;5.24;81.78;97114.00;10373032;28;20511;-58
2021/12/28 13:22:19;;;;;;;61.88;34.10;;;;;;;5.17;82.00;97114.78;10373901;28;20052;-58
2021/12/28 13:27:19;;;;;;;70.15;37.60;;;;;;;4.98;82.39;97118.91;10371120;28;20021;-58
2021/12/28 13:32:18;;;;;;;68.95;36.00;;;;;;;4.88;82.58;97124.75;10371393;28;20067;-59
2021/12/28 13:37:28;;;;;;;69.97;35.72;;;;;;;4.95;82.92;97131.72;10377470;28;20044;-59
2021/12/28 13:42:27;;;;;;;69.28;37.30;;;;;;;4.96;82.96;97123.16;10379064;28;20064;-59
2021/12/28 13:47:26;;;;;;;78.38;45.55;;;;;;;4.91;83.03;97132.50;10379523;28;20505;-59
2021/12/28 13:52:25;;;;;;;76.03;40.42;;;;;;;4.94;82.96;97127.41;10379305;28;20060;-59
2021/12/28 13:57:24;;;;;;;81.47;40.92;;;;;;;4.89;83.13;97137.59;10379282;28;20044;-59
2021/12/28 14:02:23;;;;;;;121.45;64.90;;;;;;;4.88;83.27;97137.63;10375037;28;20770;-59
2021/12/28 14:07:22;;;;;;;89.45;47.00;;;;;;;4.91;83.33;97142.78;10361796;28;20119;-58
2021/12/28 14:12:21;;;;;;;48.80;25.98;;;;;;;4.82;83.74;97143.53;10366354;28;20111;-59
2021/12/28 14:17:22;;;;;;;67.53;38.97;;;;;;;4.75;83.88;97148.59;10368485;28;20411;-58
2021/12/28 14:22:22;;;;;;;45.33;28.52;;;;;;;4.59;84.13;97152.66;10378106;28;20059;-58
2021/12/28 14:27:32;;;;;;;44.45;28.25;;;;;;;4.55;83.99;97158.59;10375330;28;20468;-58
2021/12/28 14:32:36;;;;;;;39.85;24.92;;;;;;;4.46;84.21;97160.22;10358890;28;20120;-58
2021/12/28 14:37:38;;;;;;;45.28;28.08;;;;;;;4.42;84.55;97150.75;10377658;28;20497;-59
2021/12/28 14:42:37;;;;;;;49.85;31.48;;;;;;;4.52;84.59;97169.69;10378313;28;20064;-57
2021/12/28 14:47:37;;;;;;;72.45;45.22;;;;;;;4.50;84.19;97173.94;10377818;28;20036;-57
2021/12/28 14:52:38;;;;;;;73.60;50.08;;;;;;;4.28;84.66;97160.81;10369159;28;20064;-57
2021/12/28 14:57:43;;;;;;;77.68;50.70;;;;;;;4.24;84.79;97169.34;10365165;28;20068;-59
2021/12/28 15:02:47;;;;;;;70.20;44.17;;;;;;;4.18;84.84;97171.81;10371555;28;20060;-57
2021/12/28 15:08:02;;;;;;;90.32;56.17;;;;;;;4.20;84.70;97171.84;10374942;28;20076;-60
2021/12/28 15:13:07;;;;;;;54.70;34.00;;;;;;;4.10;85.15;97178.53;10375512;28;20060;-59
2021/12/28 15:18:07;;;;;;;42.60;27.25;;;;;;;4.10;85.34;97181.09;10375735;28;20511;-59
2021/12/28 15:23:08;;;;;;;49.00;30.42;;;;;;;4.07;85.27;97179.34;10375967;28;20063;-59
2021/12/28 15:28:07;;;;;;;52.15;33.63;;;;;;;4.07;85.34;97178.50;10376824;28;20076;-58
2021/12/28 15:33:06;;;;;;;43.15;26.17;;;;;;;4.02;85.74;97172.44;10376306;28;20057;-58
2021/12/28 15:38:08;;;;;;;44.60;27.38;;;;;;;4.00;85.81;97168.97;10374568;28;20072;-58
2021/12/28 15:43:08;;;;;;;66.55;39.00;;;;;;;3.97;85.95;97176.63;10375537;28;20101;-57
2021/12/28 15:48:08;;;;;;;48.58;30.70;;;;;;;3.94;86.26;97171.44;10373481;28;20052;-57
2021/12/28 15:53:07;;;;;;;57.15;33.22;;;;;;;3.85;86.58;97177.31;10370993;28;20518;-58
2021/12/28 15:58:06;;;;;;;56.88;33.65;;;;;;;3.84;86.46;97175.56;10374613;28;20452;-58
2021/12/28 16:03:05;;;;;;;;;;;;;;;3.82;86.82;97182.38;10375679;28;20499;-58
2021/12/28 16:08:04;;;;;;;45.05;27.70;;;;;;;3.66;87.32;97181.28;10374244;28;19951;-58
2021/12/28 16:13:03;;;;;;;44.40;24.02;;;;;;;3.55;87.75;97178.50;10375228;28;20557;-58
2021/12/28 16:18:02;;;;;;;108.25;53.40;;;;;;;3.36;88.31;97172.19;10374973;28;20045;-58
2021/12/28 16:23:01;;;;;;;62.75;34.80;;;;;;;3.31;88.40;97163.56;10374612;28;20052;-58
2021/12/28 16:28:00;;;;;;;53.47;27.80;;;;;;;3.27;88.78;97174.59;10374614;28;20055;-58
2021/12/28 16:32:59;;;;;;;59.00;28.98;;;;;;;3.39;89.33;97192.75;10374031;28;20040;-58
2021/12/28 16:37:58;;;;;;;62.30;25.83;;;;;;;3.47;88.83;97189.47;10360472;28;20512;-58
2021/12/28 16:42:59;;;;;;;59.15;25.17;;;;;;;3.55;88.87;97177.66;10413365;28;20064;-58
2021/12/28 16:47:58;;;;;;;56.28;24.33;;;;;;;3.66;88.76;97171.00;10414346;28;20074;-58
2021/12/28 16:52:57;;;;;;;59.60;24.52;;;;;;;3.67;88.48;97159.88;10414688;28;20048;-58
2021/12/28 16:57:56;;;;;;;64.53;26.08;;;;;;;3.92;88.52;97176.56;10414579;28;20033;-58
2021/12/28 17:02:55;;;;;;;67.80;33.45;;;;;;;3.76;88.80;97177.16;10414758;28;20482;-58
2021/12/28 17:07:54;;;;;;;99.43;53.58;;;;;;;3.68;88.39;97179.56;10413692;28;20056;-58
2021/12/28 17:12:53;;;;;;;;;;;;;;;3.64;89.16;97190.63;10414063;28;20064;-58
2021/12/28 17:17:52;;;;;;;84.10;39.75;;;;;;;3.53;89.11;97179.31;10414684;28;19919;-58
2021/12/28 17:22:51;;;;;;;85.07;41.13;;;;;;;3.50;89.19;97184.41;10413224;28;20020;-58
2021/12/28 17:27:50;;;;;;;149.68;72.95;;;;;;;3.44;89.07;97175.75;10414142;28;20040;-58
2021/12/28 17:32:49;;;;;;;87.18;43.10;;;;;;;3.42;89.39;97180.00;10414940;28;20029;-58
2021/12/28 17:37:48;;;;;;;;;;;;;;;3.28;89.90;97189.13;10413451;28;20064;-58
2021/12/28 17:42:47;;;;;;;81.05;31.92;;;;;;;3.21;90.21;97198.44;10412693;28;19948;-58
2021/12/28 17:47:47;;;;;;;115.90;54.17;;;;;;;3.23;90.35;97183.06;10413929;28;20794;-58
2021/12/28 17:52:46;;;;;;;;;;;;;;;3.33;90.61;97189.22;10413438;28;20048;-58
2021/12/28 17:57:45;;;;;;;94.13;39.33;;;;;;;3.24;90.31;97171.97;10409939;28;19924;-58
2021/12/28 18:02:44;;;;;;;;;;;;;;;3.18;91.06;97189.81;10414060;28;20067;-58
2021/12/28 18:07:43;;;;;;;70.15;30.20;;;;;;;2.89;91.67;97200.34;10410451;28;19919;-58
2021/12/28 18:12:42;;;;;;;88.57;32.20;;;;;;;2.87;91.84;97191.78;10413542;28;20059;-58
2021/12/28 18:17:42;;;;;;;85.13;30.95;;;;;;;2.93;92.04;97186.78;10413129;28;21365;-58
2021/12/28 18:22:41;;;;;;;84.40;35.67;;;;;;;2.94;92.01;97188.50;10415785;28;20068;-58
2021/12/28 18:27:42;;;;;;;78.75;35.00;;;;;;;3.01;91.45;97184.34;10418260;28;20075;-58
2021/12/28 18:32:51;;;;;;;79.85;30.75;;;;;;;2.84;92.50;97186.59;10414725;28;20064;-58
2021/12/28 18:37:50;;;;;;;79.72;34.08;;;;;;;2.73;92.58;97185.50;10419645;28;20068;-57
2021/12/28 18:42:50;;;;;;;87.70;30.58;;;;;;;2.58;93.49;97178.34;10420427;28;20071;-58
2021/12/28 18:47:49;;;;;;;104.72;34.95;;;;;;;2.71;93.25;97189.72;10421010;28;20469;-58
2021/12/28 18:52:48;;;;;;;88.57;25.30;;;;;;;2.54;93.83;97197.94;10420217;28;20068;-58
2021/12/28 18:57:48;;;;;;;76.78;33.38;;;;;;;2.36;93.24;97171.91;10419878;28;20068;-58
2021/12/28 19:02:48;;;;;;;58.88;25.08;;;;;;;2.57;93.08;97208.22;10420583;28;20067;-57
2021/12/28 19:07:48;;;;;;;64.97;30.70;;;;;;;2.59;92.91;97196.31;10419549;28;20075;-58
2021/12/28 19:12:51;;;;;;;66.10;26.92;;;;;;;2.57;93.08;97195.41;10419322;28;20055;-58
2021/12/28 19:17:52;;;;;;;70.35;29.67;;;;;;;2.55;93.34;97199.66;10419492;28;20075;-58
2021/12/28 19:22:51;;;;;;;59.03;26.58;;;;;;;2.54;93.30;97192.81;10419155;28;20498;-58
2021/12/28 19:27:51;;;;;;;62.10;29.80;;;;;;;2.63;92.45;97193.81;10418935;28;20130;-58
2021/12/28 19:32:50;;;;;;;46.80;21.67;;;;;;;2.42;93.04;97189.09;10417439;28;20064;-57
2021/12/28 19:37:49;;;;;;;54.88;17.85;;;;;;;2.37;92.69;97178.75;10418838;28;20833;-57
2021/12/28 19:42:49;;;;;;;49.65;20.92;;;;;;;2.38;92.94;97172.81;10418347;28;20428;-58
2021/12/28 19:47:49;;;;;;;48.13;22.15;;;;;;;1.99;93.22;97124.16;10417644;28;20487;-59
2021/12/28 19:52:48;;;;;;;;;;;;;;;2.20;93.01;97167.28;10417270;28;20068;-59
2021/12/28 19:57:47;;;;;;;65.20;31.50;;;;;;;2.24;93.40;97161.41;10417066;28;19952;-59
2021/12/28 20:02:47;;;;;;;57.58;23.00;;;;;;;2.31;93.05;97159.00;10417829;28;20090;-60
2021/12/28 20:07:46;;;;;;;66.55;28.67;;;;;;;2.41;92.96;97157.50;10417452;28;20071;-59
2021/12/28 20:12:46;;;;;;;77.78;32.20;;;;;;;2.51;92.99;97156.91;10416999;28;20071;-59
2021/12/28 20:17:47;;;;;;;58.75;24.95;;;;;;;2.31;92.85;97122.31;10416681;28;20060;-60
2021/12/28 20:22:47;;;;;;;70.05;25.80;;;;;;;2.35;92.69;97159.97;10416849;28;20068;-58
2021/12/28 20:27:48;;;;;;;63.55;25.88;;;;;;;2.33;93.15;97162.47;10415808;28;20105;-60
2021/12/28 20:32:48;;;;;;;49.88;23.40;;;;;;;2.28;93.02;97158.97;10416285;28;20064;-59
2021/12/28 20:37:47;;;;;;;66.95;30.42;;;;;;;2.32;93.16;97155.59;10416001;28;20060;-59
2021/12/28 20:42:46;;;;;;;61.75;29.15;;;;;;;2.31;92.99;97158.16;10416373;28;20040;-59
2021/12/28 20:47:46;;;;;;;;;;;;;;;2.38;92.88;97152.34;10416305;28;20060;-59
2021/12/28 20:52:45;;;;;;;57.47;23.63;;;;;;;2.52;92.70;97148.38;10416104;28;20382;-58
2021/12/28 20:57:51;;;;;;;59.60;24.40;;;;;;;2.61;92.71;97141.72;10415325;28;20471;-58
2021/12/28 21:02:50;;;;;;;47.70;23.40;;;;;;;2.67;92.31;97144.38;10414980;28;20063;-58
2021/12/28 21:07:50;;;;;;;60.22;23.75;;;;;;;2.40;92.36;97101.16;10414493;28;20063;-58
2021/12/28 21:12:50;;;;;;;80.30;25.13;;;;;;;2.26;92.89;97116.25;10415203;28;20063;-58
2021/12/28 21:17:50;;;;;;;86.63;28.85;;;;;;;2.13;93.07;97141.53;10414442;28;20075;-58
2021/12/28 21:22:49;;;;;;;57.45;22.20;;;;;;;1.85;93.91;97147.72;10414448;28;20060;-58
2021/12/28 21:27:48;;;;;;;58.47;24.02;;;;;;;1.68;94.26;97138.81;10414341;28;20045;-58
2021/12/28 21:32:48;;;;;;;;;;;;;;;1.83;93.93;97162.19;10415670;28;20432;-58
2021/12/28 21:37:50;;;;;;;66.37;18.23;;;;;;;1.68;93.78;97139.66;10414733;28;19955;-58
2021/12/28 21:42:49;;;;;;;66.00;20.30;;;;;;;1.62;94.33;97146.31;10415382;28;20143;-58
2021/12/28 21:47:49;;;;;;;60.08;24.42;;;;;;;1.81;94.11;97165.53;10414487;28;20067;-58
2021/12/28 21:52:48;;;;;;;59.85;22.95;;;;;;;1.77;94.01;97166.31;10414228;28;20064;-58
2021/12/28 21:57:49;;;;;;;46.72;18.08;;;;;;;1.69;94.36;97177.22;10419076;28;20077;-58
2021/12/28 22:02:49;;;;;;;32.83;13.73;;;;;;;1.48;94.90;97181.78;10421573;28;20060;-59
2021/12/28 22:07:52;;;;;;;25.48;11.30;;;;;;;1.35;94.64;97195.09;10422080;28;20048;-59
2021/12/28 22:12:51;;;;;;;26.15;12.30;;;;;;;1.28;94.53;97183.84;10422148;28;20064;-58
2021/12/28 22:17:50;;;;;;;23.15;11.55;;;;;;;1.24;94.70;97180.31;10420983;28;20035;-57
2021/12/28 22:22:49;;;;;;;25.15;11.18;;;;;;;0.93;94.32;97139.47;10421296;28;20033;-59
2021/12/28 22:27:49;;;;;;;23.90;11.60;;;;;;;1.14;94.43;97196.25;10421264;28;20470;-59
2021/12/28 22:32:48;;;;;;;31.70;17.20;;;;;;;0.93;94.80;97190.56;10421194;28;20094;-59
2021/12/28 22:37:55;;;;;;;23.17;11.55;;;;;;;0.85;94.79;97172.44;10420656;28;20056;-59
2021/12/28 22:42:54;;;;;;;22.75;12.15;;;;;;;1.01;94.53;97189.06;10420748;28;20095;-59
2021/12/28 22:47:54;;;;;;;21.88;10.82;;;;;;;1.05;94.05;97160.22;10420517;28;20471;-57
2021/12/28 22:52:53;;;;;;;23.13;11.68;;;;;;;1.25;93.84;97187.19;10420774;28;20511;-59
2021/12/28 22:57:52;;;;;;;21.65;12.18;;;;;;;1.27;93.66;97185.53;10420420;28;20048;-59
2021/12/28 23:02:53;;;;;;;25.90;13.75;;;;;;;1.37;93.15;97181.53;10418673;28;20060;-59
2021/12/28 23:07:52;;;;;;;23.52;11.15;;;;;;;1.53;93.15;97175.97;10418049;28;20042;-57
2021/12/28 23:12:51;;;;;;;19.30;12.25;;;;;;;1.60;92.97;97171.00;10418918;28;20025;-58
2021/12/28 23:17:50;;;;;;;21.75;12.10;;;;;;;1.70;92.97;97178.94;10418451;28;20085;-58